createdAt,value
2023-05-07T00:01:12.963Z,13.00
2023-05-07T00:03:51.993Z,14.25
2023-05-07T00:06:32.716Z,13.57
2023-05-07T00:09:02.022Z,10.65
2023-05-07T00:11:29.716Z,12.75
2023-05-07T00:13:57.908Z,16.15
2023-05-07T00:16:25.863Z,15.73
2023-05-07T00:18:57.176Z,15.63
2023-05-07T00:21:30.399Z,17.02
2023-05-07T00:24:01.414Z,16.45
2023-05-07T00:26:35.293Z,11.63
2023-05-07T00:29:06.437Z,8.07
2023-05-07T00:31:34.099Z,8.57
2023-05-07T00:34:23.595Z,7.38
2023-05-07T00:36:51.456Z,6.85
2023-05-07T00:39:19.224Z,6.82
2023-05-07T00:42:06.451Z,9.00
2023-05-07T00:44:40.542Z,7.00
2023-05-07T00:47:09.937Z,5.03
2023-05-07T00:49:43.889Z,5.78
2023-05-07T00:52:17.797Z,8.05
2023-05-07T00:54:49.692Z,5.75
2023-05-07T00:57:26.918Z,7.38
2023-05-07T00:59:54.880Z,10.13
2023-05-07T01:02:24.978Z,5.75
2023-05-07T01:04:53.014Z,6.30
2023-05-07T01:07:25.065Z,7.57
2023-05-07T01:13:29.821Z,7.15
2023-05-07T01:15:57.723Z,7.45
2023-05-07T01:18:27.896Z,9.93
2023-05-07T01:20:59.198Z,9.35
2023-05-07T01:23:32.004Z,9.35
2023-05-07T01:26:10.546Z,7.40
2023-05-07T01:28:40.627Z,8.77
2023-05-07T01:31:11.209Z,12.13
2023-05-07T01:33:41.926Z,10.90
2023-05-07T01:36:11.514Z,8.98
2023-05-07T01:38:43.398Z,10.25
2023-05-07T01:41:11.625Z,13.18
2023-05-07T01:43:46.665Z,7.90
2023-05-07T01:46:15.897Z,8.60
2023-05-07T01:48:47.191Z,9.43
2023-05-07T01:51:15.425Z,11.68
2023-05-07T01:53:46.160Z,13.88
2023-05-07T01:56:17.792Z,10.88
2023-05-07T01:58:51.952Z,13.65
2023-05-07T02:01:19.937Z,10.15
2023-05-07T02:04:02.344Z,8.82
2023-05-07T02:07:02.661Z,10.38
2023-05-07T02:09:42.581Z,11.05
2023-05-07T02:12:23.836Z,11.40
2023-05-07T02:14:55.126Z,15.23
2023-05-07T02:18:00.408Z,13.32
2023-05-07T02:31:15.918Z,14.70
2023-05-07T02:33:46.916Z,20.67
2023-05-07T02:37:22.698Z,18.73
2023-05-07T02:40:00.209Z,21.38
2023-05-07T02:42:35.082Z,21.15
2023-05-07T02:45:13.766Z,17.25
2023-05-07T02:47:53.841Z,15.85
2023-05-07T02:50:22.101Z,19.25
2023-05-07T02:52:53.017Z,18.63
2023-05-07T02:55:21.073Z,16.15
2023-05-07T03:00:56.304Z,19.30
2023-05-07T03:03:41.722Z,18.92
2023-05-07T03:06:16.749Z,18.98
2023-05-07T03:08:53.430Z,19.98
2023-05-07T03:11:24.501Z,26.10
2023-05-07T03:13:57.391Z,19.83
2023-05-07T03:16:43.117Z,21.73
2023-05-07T03:19:13.763Z,23.52
2023-05-07T03:21:51.082Z,19.48
2023-05-07T03:24:23.313Z,20.48
2023-05-07T03:26:51.100Z,23.98
2023-05-07T03:29:25.378Z,25.00
2023-05-07T03:31:53.328Z,18.58
2023-05-07T03:34:28.571Z,24.83
2023-05-07T03:37:12.583Z,22.63
2023-05-07T03:44:18.538Z,24.08
2023-05-07T03:46:47.884Z,24.63
2023-05-07T03:49:27.824Z,20.42
2023-05-07T03:52:02.292Z,21.10
2023-05-07T03:54:53.690Z,22.60
2023-05-07T03:57:24.799Z,23.52
2023-05-07T04:00:02.706Z,20.30
2023-05-07T04:02:37.216Z,18.63
2023-05-07T04:05:13.044Z,20.85
2023-05-07T04:08:19.667Z,19.58
2023-05-07T04:11:08.006Z,18.88
2023-05-07T04:13:45.630Z,21.77
2023-05-07T04:16:24.376Z,19.63
2023-05-07T04:18:52.301Z,19.42
2023-05-07T04:21:27.665Z,23.08
2023-05-07T04:24:14.864Z,14.73
2023-05-07T04:29:31.398Z,17.33
2023-05-07T04:32:01.914Z,18.80
2023-05-07T04:34:31.001Z,15.25
2023-05-07T04:37:05.046Z,15.68
2023-05-07T04:39:47.101Z,18.63
2023-05-07T04:43:39.852Z,19.80
2023-05-07T04:46:37.188Z,16.17
2023-05-07T04:49:32.060Z,16.25
2023-05-07T04:52:00.747Z,23.05
2023-05-07T04:54:32.524Z,16.75
2023-05-07T04:57:11.058Z,21.48
2023-05-07T04:59:38.713Z,21.23
2023-05-07T05:02:09.277Z,17.50
2023-05-07T05:04:37.951Z,19.38
2023-05-07T05:07:06.544Z,18.98
2023-05-07T05:09:34.749Z,18.98
2023-05-07T05:12:03.025Z,17.85
2023-05-07T05:15:20.153Z,20.60
2023-05-07T05:20:49.822Z,21.52
2023-05-07T05:23:30.235Z,25.10
2023-05-07T05:26:12.746Z,22.42
2023-05-07T05:28:52.797Z,22.67
2023-05-07T05:31:23.097Z,25.08
2023-05-07T05:34:03.254Z,28.80
2023-05-07T05:36:35.782Z,19.63
2023-05-07T05:39:11.971Z,25.98
2023-05-07T05:41:56.631Z,24.98
2023-05-07T05:44:45.836Z,25.23
2023-05-07T05:47:23.707Z,22.50
2023-05-07T05:49:54.711Z,21.27
2023-05-07T05:52:27.776Z,24.38
2023-05-07T05:54:59.315Z,19.80
2023-05-07T05:57:34.931Z,23.10
2023-05-07T06:00:15.848Z,29.13
2023-05-07T06:06:46.423Z,19.10
2023-05-07T06:09:55.818Z,26.42
2023-05-07T06:15:49.378Z,23.30
2023-05-07T06:18:49.236Z,20.83
2023-05-07T06:21:19.722Z,23.90
2023-05-07T06:23:47.943Z,19.70
2023-05-07T06:26:34.947Z,18.75
2023-05-07T06:29:13.372Z,18.70
2023-05-07T06:31:43.552Z,26.55
2023-05-07T06:34:18.604Z,25.42
2023-05-07T06:40:40.009Z,20.92
2023-05-07T06:43:12.297Z,17.90
2023-05-07T06:53:36.732Z,22.52
2023-05-07T07:00:07.624Z,22.73
2023-05-07T07:02:55.728Z,22.27
2023-05-07T07:06:16.129Z,23.95
2023-05-07T07:09:03.595Z,25.25
2023-05-07T07:11:41.461Z,21.52
2023-05-07T07:14:11.276Z,20.77
2023-05-07T07:16:55.661Z,20.10
2023-05-07T07:19:25.501Z,23.52
2023-05-07T07:21:56.194Z,19.83
2023-05-07T07:24:34.278Z,22.15
2023-05-07T07:27:06.171Z,19.20
2023-05-07T07:29:35.578Z,23.30
2023-05-07T07:32:04.303Z,20.58
2023-05-07T07:34:41.084Z,23.60
2023-05-07T07:37:09.489Z,21.48
2023-05-07T07:39:59.396Z,18.80
2023-05-07T07:42:37.501Z,25.90
2023-05-07T07:45:23.575Z,23.77
2023-05-07T07:47:59.433Z,22.05
2023-05-07T07:50:45.091Z,20.83
2023-05-07T07:53:15.636Z,23.60
2023-05-07T07:55:58.089Z,22.17
2023-05-07T07:58:49.280Z,18.90
2023-05-07T08:01:26.257Z,23.98
2023-05-07T08:03:58.649Z,19.70
2023-05-07T08:06:28.203Z,22.05
2023-05-07T08:08:58.502Z,20.65
2023-05-07T08:11:26.980Z,18.55
2023-05-07T08:13:57.506Z,19.35
2023-05-07T08:16:26.245Z,20.25
2023-05-07T08:18:59.086Z,21.58
2023-05-07T08:21:30.957Z,22.88
2023-05-07T08:24:01.705Z,20.67
2023-05-07T08:26:30.523Z,16.63
2023-05-07T08:28:58.674Z,19.17
2023-05-07T08:31:27.458Z,16.83
2023-05-07T08:33:57.424Z,23.45
2023-05-07T08:36:25.582Z,16.98
2023-05-07T08:38:54.244Z,25.27
2023-05-07T08:41:22.725Z,16.48
2023-05-07T08:43:51.729Z,15.63
2023-05-07T08:46:21.928Z,14.45
2023-05-07T08:48:52.792Z,17.27
2023-05-07T08:51:22.211Z,10.82
2023-05-07T08:53:51.387Z,11.95
2023-05-07T08:56:26.343Z,10.93
2023-05-07T08:58:59.649Z,11.52
2023-05-07T09:01:39.647Z,12.48
2023-05-07T09:04:08.214Z,12.20
2023-05-07T09:06:36.425Z,13.52
2023-05-07T09:09:06.439Z,9.35
2023-05-07T09:11:35.088Z,8.52
2023-05-07T09:14:03.836Z,10.50
2023-05-07T09:16:36.910Z,8.48
2023-05-07T09:19:06.634Z,7.07
2023-05-07T09:21:37.584Z,11.05
2023-05-07T09:24:08.779Z,13.30
2023-05-07T09:26:40.798Z,9.45
2023-05-07T09:29:11.311Z,7.60
2023-05-07T09:31:39.972Z,8.52
2023-05-07T09:34:09.911Z,7.80
2023-05-07T09:36:46.896Z,6.88
2023-05-07T09:39:15.376Z,8.25
2023-05-07T09:41:47.082Z,7.53
2023-05-07T09:44:21.961Z,8.52
2023-05-07T09:46:56.597Z,18.45
2023-05-07T09:49:39.097Z,8.82
2023-05-07T09:52:11.597Z,8.63
2023-05-07T09:54:50.626Z,8.73
2023-05-07T09:57:21.616Z,6.00
2023-05-07T09:59:54.632Z,9.98
2023-05-07T10:02:22.782Z,8.70
2023-05-07T10:04:55.145Z,8.32
2023-05-07T10:07:29.075Z,11.00
2023-05-07T10:10:05.717Z,6.30
2023-05-07T10:12:40.326Z,14.07
2023-05-07T10:15:15.519Z,8.13
2023-05-07T10:17:48.022Z,7.68
2023-05-07T10:20:16.675Z,6.72
2023-05-07T10:22:48.536Z,8.93
2023-05-07T10:25:33.732Z,10.52
2023-05-07T10:28:12.314Z,5.72
2023-05-07T10:31:07.303Z,7.53
2023-05-07T10:33:44.268Z,6.85
2023-05-07T10:36:12.615Z,10.73
2023-05-07T10:38:41.693Z,9.50
2023-05-07T10:41:09.632Z,5.97
2023-05-07T10:43:45.221Z,8.18
2023-05-07T10:46:30.096Z,6.93
2023-05-07T10:49:12.860Z,6.95
2023-05-07T10:52:18.398Z,7.78
2023-05-07T10:55:22.970Z,7.95
2023-05-07T11:01:03.108Z,7.05
2023-05-07T11:04:15.996Z,8.63
2023-05-07T11:07:10.558Z,6.65
2023-05-07T11:10:05.799Z,7.63
2023-05-07T11:12:44.136Z,9.25
2023-05-07T11:15:39.572Z,9.57
2023-05-07T11:18:18.070Z,6.20
2023-05-07T11:20:57.982Z,7.60
2023-05-07T11:23:42.729Z,7.35
2023-05-07T11:26:17.988Z,6.60
2023-05-07T11:28:47.176Z,6.63
2023-05-07T11:31:14.831Z,6.38
2023-05-07T11:33:44.672Z,7.45
2023-05-07T11:36:16.411Z,5.65
2023-05-07T11:38:48.361Z,9.20
2023-05-07T11:41:17.483Z,8.55
2023-05-07T11:43:58.942Z,8.57
2023-05-07T11:46:27.586Z,8.32
2023-05-07T11:48:55.570Z,8.02
2023-05-07T11:51:27.255Z,8.65
2023-05-07T11:53:55.096Z,8.77
2023-05-07T11:56:22.598Z,6.30
2023-05-07T11:58:51.982Z,10.82
2023-05-07T12:01:19.431Z,7.70
2023-05-07T12:03:47.694Z,5.90
2023-05-07T12:06:18.370Z,6.63
2023-05-07T12:08:48.319Z,5.68
2023-05-07T12:11:26.859Z,6.45
2023-05-07T12:13:59.089Z,5.70
2023-05-07T12:16:27.984Z,8.27
2023-05-07T12:18:56.292Z,5.07
2023-05-07T12:21:25.344Z,7.25
2023-05-07T12:23:52.701Z,6.60
2023-05-07T12:26:27.859Z,11.45
2023-05-07T12:28:55.903Z,10.82
2023-05-07T12:31:23.139Z,13.95
2023-05-07T12:33:50.850Z,8.80
2023-05-07T12:36:18.293Z,8.75
2023-05-07T12:38:45.904Z,7.97
2023-05-07T12:41:13.560Z,8.25
2023-05-07T12:43:44.609Z,7.90
2023-05-07T12:46:14.538Z,11.32
2023-05-07T12:48:47.295Z,7.07
2023-05-07T12:51:16.066Z,6.40
2023-05-07T12:53:44.010Z,5.63
2023-05-07T12:56:11.620Z,9.10
2023-05-07T12:58:38.970Z,5.70
2023-05-07T13:01:10.662Z,5.53
2023-05-07T13:03:39.483Z,4.55
2023-05-07T13:06:11.257Z,5.88
2023-05-07T13:08:42.365Z,7.22
2023-05-07T13:11:11.174Z,5.88
2023-05-07T13:13:39.874Z,5.43
2023-05-07T13:16:09.910Z,7.28
2023-05-07T13:18:38.989Z,14.95
2023-05-07T13:21:06.706Z,6.03
2023-05-07T13:23:34.811Z,7.82
2023-05-07T13:26:08.605Z,6.28
2023-05-07T13:28:39.037Z,5.88
2023-05-07T13:31:06.535Z,5.60
2023-05-07T13:33:33.827Z,8.30
2023-05-07T13:36:01.730Z,3.15
2023-05-07T13:38:28.984Z,7.32
2023-05-07T13:40:56.400Z,7.88
2023-05-07T13:43:23.718Z,6.15
2023-05-07T13:45:51.159Z,7.22
2023-05-07T13:48:18.553Z,6.60
2023-05-07T13:50:46.076Z,8.63
2023-05-07T13:53:13.391Z,7.43
2023-05-07T13:55:40.692Z,6.88
2023-05-07T13:58:07.995Z,8.25
2023-05-07T14:00:35.569Z,3.70
2023-05-07T14:03:03.253Z,7.05
2023-05-07T14:05:30.675Z,9.85
2023-05-07T14:08:00.835Z,5.50
2023-05-07T14:10:28.377Z,5.75
2023-05-07T14:12:56.108Z,3.80
2023-05-07T14:15:23.624Z,3.20
2023-05-07T14:17:51.084Z,6.00
2023-05-07T14:20:18.499Z,3.13
2023-05-07T14:22:47.316Z,4.45
2023-05-07T14:25:15.002Z,4.30
2023-05-07T14:27:44.911Z,3.55
2023-05-07T14:30:12.828Z,6.80
2023-05-07T14:32:41.331Z,6.38
2023-05-07T14:35:09.647Z,3.20
2023-05-07T14:37:37.345Z,3.90
2023-05-07T14:40:05.222Z,4.05
2023-05-07T14:42:32.693Z,3.30
2023-05-07T14:45:00.190Z,3.22
2023-05-07T14:47:27.538Z,3.90
2023-05-07T14:49:56.099Z,3.78
2023-05-07T14:52:23.491Z,5.20
2023-05-07T14:54:50.893Z,5.30
2023-05-07T14:57:19.641Z,5.40
2023-05-07T14:59:48.152Z,3.50
2023-05-07T15:02:16.135Z,5.47
2023-05-07T15:04:46.898Z,6.13
2023-05-07T15:07:16.437Z,6.30
2023-05-07T15:09:44.315Z,3.42
2023-05-07T15:12:13.974Z,3.95
2023-05-07T15:14:42.488Z,3.47
2023-05-07T15:17:10.028Z,4.35
2023-05-07T15:19:37.414Z,2.35
2023-05-07T15:22:04.956Z,2.92
2023-05-07T15:24:32.341Z,2.85
2023-05-07T15:27:00.009Z,2.88
2023-05-07T15:29:28.389Z,5.50
2023-05-07T15:31:58.250Z,3.17
2023-05-07T15:34:25.878Z,4.25
2023-05-07T15:36:53.391Z,2.00
2023-05-07T15:39:24.799Z,2.30
2023-05-07T15:42:02.237Z,2.00
2023-05-07T15:44:32.051Z,3.78
2023-05-07T15:47:00.886Z,3.03
2023-05-07T15:49:31.409Z,4.10
2023-05-07T15:51:59.069Z,3.33
2023-05-07T15:54:26.982Z,5.22
2023-05-07T15:56:55.799Z,8.48
2023-05-07T15:59:23.237Z,3.05
2023-05-07T16:01:51.314Z,1.92
2023-05-07T16:04:18.695Z,5.90
2023-05-07T16:06:47.441Z,5.50
2023-05-07T16:09:15.410Z,2.47
2023-05-07T16:11:42.993Z,4.13
2023-05-07T16:14:10.356Z,3.67
2023-05-07T16:16:42.483Z,2.40
2023-05-07T16:19:10.114Z,4.95
2023-05-07T16:21:38.261Z,1.60
2023-05-07T16:24:05.836Z,3.17
2023-05-07T16:26:33.237Z,3.40
2023-05-07T16:29:04.168Z,5.22
2023-05-07T16:31:33.558Z,4.93
2023-05-07T16:34:01.192Z,4.32
2023-05-07T16:36:29.320Z,1.88
2023-05-07T16:39:03.520Z,6.47
2023-05-07T16:41:31.083Z,3.17
2023-05-07T16:43:58.657Z,5.07
2023-05-07T16:46:26.436Z,4.70
2023-05-07T16:48:54.161Z,7.03
2023-05-07T16:51:24.483Z,6.53
2023-05-07T16:53:52.474Z,7.80
2023-05-07T16:56:19.919Z,5.53
2023-05-07T16:58:47.207Z,7.63
2023-05-07T17:01:16.465Z,27.02
2023-05-07T17:03:43.951Z,8.65
2023-05-07T17:06:15.089Z,3.22
2023-05-07T17:08:43.252Z,11.80
2023-05-07T17:11:11.414Z,5.07
2023-05-07T17:13:39.016Z,4.22
2023-05-07T17:16:06.814Z,6.95
2023-05-07T17:18:36.482Z,7.57
2023-05-07T17:21:03.978Z,5.15
2023-05-07T17:23:31.573Z,3.95
2023-05-07T17:25:58.958Z,8.98
2023-05-07T17:28:26.340Z,2.17
2023-05-07T17:30:53.664Z,5.38
2023-05-07T17:33:22.259Z,7.22
2023-05-07T17:35:50.209Z,2.83
2023-05-07T17:38:17.696Z,4.15
2023-05-07T17:40:45.015Z,3.42
2023-05-07T17:43:12.565Z,5.55
2023-05-07T17:45:40.462Z,2.28
2023-05-07T17:48:08.347Z,4.10
2023-05-07T17:50:35.795Z,5.88
2023-05-07T17:53:04.057Z,4.35
2023-05-07T17:55:33.545Z,4.38
2023-05-07T17:58:02.857Z,5.30
2023-05-07T18:00:30.398Z,5.90
2023-05-07T18:03:00.389Z,6.00
2023-05-07T18:05:28.319Z,7.47
2023-05-07T18:07:56.371Z,2.72
2023-05-07T18:10:24.103Z,3.50
2023-05-07T18:12:51.661Z,3.30
2023-05-07T18:15:19.318Z,7.15
2023-05-07T18:17:46.798Z,5.35
2023-05-07T18:20:14.355Z,4.43
2023-05-07T18:22:42.093Z,2.22
2023-05-07T18:25:09.729Z,5.10
2023-05-07T18:27:37.121Z,3.75
2023-05-07T18:30:06.298Z,4.10
2023-05-07T18:32:33.759Z,2.35
2023-05-07T18:35:01.330Z,2.65
2023-05-07T18:37:29.251Z,4.07
2023-05-07T18:39:57.151Z,3.65
2023-05-07T18:42:24.479Z,5.50
2023-05-07T18:44:51.834Z,4.20
2023-05-07T18:47:19.300Z,5.90
2023-05-07T18:49:46.756Z,9.63
2023-05-07T18:52:16.335Z,6.63
2023-05-07T18:54:44.033Z,12.02
2023-05-07T18:57:13.653Z,6.78
2023-05-07T18:59:41.102Z,4.97
2023-05-07T19:02:09.580Z,11.90
2023-05-07T19:04:37.012Z,5.68
2023-05-07T19:07:04.717Z,11.00
2023-05-07T19:09:32.229Z,5.10
2023-05-07T19:11:59.990Z,7.32
2023-05-07T19:14:27.852Z,8.65
2023-05-07T19:17:01.376Z,9.38
2023-05-07T19:19:28.795Z,6.10
2023-05-07T19:21:56.425Z,8.55
2023-05-07T19:24:27.866Z,7.60
2023-05-07T19:26:56.761Z,11.23
2023-05-07T19:29:24.191Z,11.23
2023-05-07T19:31:52.054Z,10.15
2023-05-07T19:34:20.829Z,11.23
2023-05-07T19:36:48.286Z,9.10
2023-05-07T19:39:16.417Z,11.07
2023-05-07T19:41:46.626Z,10.60
2023-05-07T19:44:14.169Z,9.30
2023-05-07T19:46:45.007Z,8.27
2023-05-07T19:49:13.330Z,14.18
2023-05-07T19:51:40.726Z,10.85
2023-05-07T19:54:08.069Z,12.57
2023-05-07T19:56:35.646Z,13.25
2023-05-07T19:59:03.145Z,19.52
2023-05-07T20:01:32.027Z,17.92
2023-05-07T20:04:00.012Z,10.02
2023-05-07T20:06:27.571Z,16.38
2023-05-07T20:08:54.858Z,38.15
2023-05-07T20:11:23.625Z,14.38
2023-05-07T20:13:51.238Z,12.00
2023-05-07T20:16:18.845Z,30.65
2023-05-07T20:18:49.097Z,48.97
2023-05-07T20:21:16.436Z,44.88
2023-05-07T20:23:43.827Z,65.22
2023-05-07T20:26:11.747Z,16.10
2023-05-07T20:28:46.925Z,14.18
2023-05-07T20:31:16.119Z,7.95
2023-05-07T20:33:43.868Z,9.38
2023-05-07T20:36:11.269Z,7.60
2023-05-07T20:38:38.972Z,12.75
2023-05-07T20:41:08.600Z,17.88
2023-05-07T20:43:39.272Z,17.73
2023-05-07T20:46:07.952Z,15.95
2023-05-07T20:48:35.959Z,14.30
2023-05-07T20:51:03.837Z,8.10
2023-05-07T20:53:34.545Z,9.65
2023-05-07T20:56:04.821Z,15.98
2023-05-07T20:58:32.264Z,15.55
2023-05-07T21:00:59.713Z,13.00
2023-05-07T21:03:28.396Z,8.65
2023-05-07T21:05:57.708Z,12.43
2023-05-07T21:08:25.471Z,14.93
2023-05-07T21:10:53.928Z,12.93
2023-05-07T21:13:30.404Z,9.75
2023-05-07T21:15:57.892Z,13.63
2023-05-07T21:18:26.781Z,12.73
2023-05-07T21:21:04.704Z,15.65
2023-05-07T21:23:34.493Z,18.00
2023-05-07T21:26:04.380Z,17.92
2023-05-07T21:28:31.954Z,14.80
2023-05-07T21:31:10.678Z,13.88
2023-05-07T21:33:44.730Z,18.27
2023-05-07T21:36:14.961Z,23.60
2023-05-07T21:38:45.666Z,21.88
2023-05-07T21:41:13.645Z,22.65
2023-05-07T21:43:41.094Z,21.52
2023-05-07T21:46:09.083Z,18.42
2023-05-07T21:48:36.975Z,30.50
2023-05-07T21:51:07.194Z,21.15
2023-05-07T21:53:36.503Z,22.13
2023-05-07T21:56:05.220Z,27.75
2023-05-07T21:58:33.140Z,20.30
2023-05-07T22:01:01.366Z,25.02
2023-05-07T22:03:31.169Z,23.35
2023-05-07T22:05:59.120Z,27.00
2023-05-07T22:08:40.601Z,23.92
2023-05-07T22:11:08.116Z,32.47
2023-05-07T22:13:35.809Z,29.77
2023-05-07T22:16:04.723Z,25.48
2023-05-07T22:18:32.314Z,26.30
2023-05-07T22:21:09.357Z,26.55
2023-05-07T22:23:37.055Z,36.95
2023-05-07T22:26:10.883Z,34.70
2023-05-07T22:28:38.604Z,29.35
2023-05-07T22:31:06.253Z,25.02
2023-05-07T22:33:33.998Z,34.67
2023-05-07T22:36:01.528Z,26.65
2023-05-07T22:38:29.438Z,33.08
2023-05-07T22:40:57.026Z,26.50
2023-05-07T22:43:24.597Z,29.38
2023-05-07T22:46:01.697Z,22.73
2023-05-07T22:48:29.938Z,28.35
2023-05-07T22:51:02.380Z,30.55
2023-05-07T22:53:30.456Z,29.70
2023-05-07T22:55:58.362Z,29.38
2023-05-07T22:58:38.177Z,27.92
2023-05-07T23:01:17.621Z,27.17
2023-05-07T23:03:48.093Z,32.72
2023-05-07T23:06:22.058Z,27.10
2023-05-07T23:08:49.767Z,36.72
2023-05-07T23:11:37.217Z,28.30
2023-05-07T23:14:04.864Z,28.60
2023-05-07T23:16:34.360Z,25.73
2023-05-07T23:19:07.521Z,31.60
2023-05-07T23:21:35.011Z,30.75
2023-05-07T23:24:02.682Z,42.22
2023-05-07T23:26:31.552Z,25.45
2023-05-07T23:28:59.234Z,23.45
2023-05-07T23:31:33.046Z,28.50
2023-05-07T23:34:09.636Z,27.63
2023-05-07T23:37:28.178Z,31.98
2023-05-07T23:40:04.042Z,30.42
2023-05-07T23:42:34.629Z,30.67
2023-05-07T23:48:17.251Z,26.15
2023-05-07T23:50:44.953Z,28.98
2023-05-07T23:53:30.140Z,35.05
2023-05-07T23:56:04.042Z,28.15
2023-05-07T23:58:40.851Z,38.65
